Norfolk Island International Airport
YSNF : now visible

Airfield :











YOU CAN JOIN US ON...

 
LOGIN :

Register | Disclaimer

   EN    FR    IT 

 









Legend :    VFR   Marginal VFR   IFR   Intensive IFR   Very Intensive IFR
Visi :
Ceiling :
>= 8 km
>= 3000ft
5 to 8 km
1000 to 3000 ft
1500m to 5 km
500 to 1000 ft
800 to 1500m
200 to 500 ft
< 800m
< 200 ft
Symbols :   Thunderstorms  Fog  Heavy snow  Heavy precipitations  Wind > 20 kt






- Airport Elevation : 371 ft
- IATA code : NLK


YSNF - Norfolk Island International

CURRENT METAR :
  • 250803Z AUTO 31011G22KT 6000 -RA BKN006 OVC011 19/18 Q1017

EXPIRED METARs :
  • 250730Z AUTO 31012KT 8000 -SHRA OVC009 OVC057 20/19 Q1017
  • 250700Z AUTO 32010KT 9999 -SHRA OVC009 OVC059 20/19 Q1016
  • 250630Z AUTO 33010KT 9000 // OVC009 20/19 Q1015 RF00/0/001/8
  • 250600Z AUTO 33009KT 9000 -DZ OVC009 20/19 Q1014 RF00.0/001.8
  • 250530Z AUTO 33011KT 8000 DZ BKN009 OVC012 20/18 Q1015

TAF AMD TAF YSNF
Valid from the 25 at 06:00 until the 26 at 06:00 UTC


250604Z 2506/2606 32014KT 8000 -SHRA BKN008
BECMG 2522/2600 32013KT 9999 -SHRA SCT018
TEMPO 2506/2600 VRB15G25KT 3000 SHRA BKN005 INTER 2600/2606 5000 SHRA BKN015
NZZO FIR / Oceania



MET'MAP, your aeronautical weather chart ! - Copyright ORBIFLY December 2007 - Disclaimer

ORBIFLY MET'MAP TEAM :

Programming & Development : Alexandra Zaïnal
Concept & original design : Baudouin d'Aumeries
Assistance for programming : Marc-Olivier Méhu
Technical & hardware support : Manuel Goepfert

Contact : metmap@orbifly.com




SOURCES & CREDITS :

   NOAA       Earth
Advisory